createdAt,value
2022-10-03T00:01:21.201Z,37.4
2022-10-03T00:03:48.036Z,64.4
2022-10-03T00:06:14.630Z,60.6
2022-10-03T00:08:41.247Z,46.4
2022-10-03T00:11:07.846Z,84.2
2022-10-03T00:13:34.459Z,52.2
2022-10-03T00:16:01.101Z,62.1
2022-10-03T00:18:27.725Z,69.2
2022-10-03T00:20:54.397Z,83.3
2022-10-03T00:23:20.953Z,71.9
2022-10-03T00:25:47.585Z,64.9
2022-10-03T00:28:12.746Z,67.9
2022-10-03T00:30:39.345Z,65.9
2022-10-03T00:33:05.976Z,74.5
2022-10-03T00:35:32.549Z,78.3
2022-10-03T00:37:59.193Z,65.3
2022-10-03T00:40:25.679Z,83.2
2022-10-03T00:42:52.440Z,79
2022-10-03T00:45:19.094Z,60.9
2022-10-03T00:47:45.720Z,67.4
2022-10-03T00:50:12.298Z,67.9
2022-10-03T00:52:38.957Z,57.7
2022-10-03T00:55:05.432Z,55.7
2022-10-03T00:57:32.176Z,51.3
2022-10-03T00:59:57.333Z,48.5
2022-10-03T01:02:23.921Z,54.9
2022-10-03T01:04:50.577Z,69.8
2022-10-03T01:07:17.207Z,51.4
2022-10-03T01:09:43.856Z,50.8
2022-10-03T01:12:10.422Z,44.1
2022-10-03T01:14:37.060Z,50.4
2022-10-03T01:21:56.938Z,47
2022-10-03T01:24:23.566Z,56.5
2022-10-03T01:26:50.229Z,55.7
2022-10-03T01:29:16.779Z,48.7
2022-10-03T01:31:41.842Z,54.7
2022-10-03T01:34:08.550Z,47.3
2022-10-03T01:36:35.127Z,71.3
2022-10-03T01:39:01.807Z,52.2
2022-10-03T01:41:28.250Z,37.3
2022-10-03T01:43:55.026Z,46.6
2022-10-03T01:46:21.689Z,63.4
2022-10-03T01:48:48.307Z,112
2022-10-03T01:51:16.255Z,47.5
2022-10-03T01:53:41.603Z,40
2022-10-03T01:56:08.132Z,52.2
2022-10-03T01:58:34.797Z,39
2022-10-03T02:01:01.401Z,39.1
2022-10-03T02:03:26.531Z,35.2
2022-10-03T02:05:53.156Z,35.7
2022-10-03T02:08:19.766Z,36.6
2022-10-03T02:10:46.399Z,37.2
2022-10-03T02:13:13.027Z,57.7
2022-10-03T02:15:39.713Z,35.9
2022-10-03T02:18:06.207Z,44.2
2022-10-03T02:20:32.880Z,66
2022-10-03T02:22:59.511Z,59
2022-10-03T02:25:26.114Z,43.1
2022-10-03T02:27:52.728Z,62.9
2022-10-03T02:30:19.384Z,44.4
2022-10-03T02:32:45.855Z,63.2
2022-10-03T02:35:12.598Z,56.8
2022-10-03T02:37:37.743Z,60.2
2022-10-03T02:40:04.398Z,51.5
2022-10-03T02:42:30.931Z,52
2022-10-03T02:44:57.638Z,54.1
2022-10-03T02:47:24.239Z,56.9
2022-10-03T02:49:50.786Z,40.8
2022-10-03T02:52:17.449Z,54
2022-10-03T02:54:43.987Z,57.2
2022-10-03T02:57:10.617Z,39
2022-10-03T02:59:37.361Z,46.7
2022-10-03T03:02:03.882Z,55.4
2022-10-03T03:04:30.440Z,53.8
2022-10-03T03:06:57.118Z,49.2
2022-10-03T03:09:22.238Z,53
2022-10-03T03:11:48.937Z,53.1
2022-10-03T03:14:15.433Z,143.8
2022-10-03T03:16:42.065Z,94.7
2022-10-03T03:19:08.715Z,58.2
2022-10-03T03:21:35.331Z,59.4
2022-10-03T03:24:01.935Z,65.3
2022-10-03T03:26:28.581Z,74.6
2022-10-03T03:28:55.196Z,57.7
2022-10-03T03:31:21.847Z,68.3
2022-10-03T03:33:48.552Z,65.5
2022-10-03T03:36:15.178Z,61.1
2022-10-03T03:38:41.697Z,61.9
2022-10-03T03:41:08.292Z,70.9
2022-10-03T03:43:35.038Z,94.7
2022-10-03T03:46:00.045Z,98.3
2022-10-03T03:48:26.671Z,51.4
2022-10-03T03:50:53.381Z,58.6
2022-10-03T03:53:19.973Z,48.3
2022-10-03T03:55:46.555Z,69.5
2022-10-03T04:00:39.896Z,77.9
2022-10-03T04:03:06.515Z,71.4
2022-10-03T04:05:33.138Z,52.8
2022-10-03T04:07:59.647Z,46.8
2022-10-03T04:10:26.283Z,61.9
2022-10-03T04:12:53.015Z,65.7
2022-10-03T04:15:19.586Z,48.8
2022-10-03T04:17:46.255Z,58.3
2022-10-03T04:20:11.386Z,61.1
2022-10-03T04:22:37.997Z,58.9
2022-10-03T04:25:04.577Z,71.7
2022-10-03T04:27:31.195Z,87.5
2022-10-03T04:29:57.879Z,72
2022-10-03T04:32:24.391Z,79.2
2022-10-03T04:34:51.020Z,70.4
2022-10-03T04:37:17.658Z,64.7
2022-10-03T04:39:44.283Z,58.7
2022-10-03T04:42:11.020Z,64.3
2022-10-03T04:44:37.505Z,63.5
2022-10-03T04:47:04.135Z,53.2
2022-10-03T04:49:30.755Z,56.4
2022-10-03T04:51:55.930Z,53.7
2022-10-03T04:54:22.510Z,49.6
2022-10-03T04:56:49.133Z,69
2022-10-03T04:59:15.743Z,64.5
2022-10-03T05:01:42.389Z,64
2022-10-03T05:04:08.994Z,56.8
2022-10-03T05:06:35.661Z,51.9
2022-10-03T05:09:02.224Z,100.4
2022-10-03T05:11:28.986Z,58.2
2022-10-03T05:13:55.476Z,53.2
2022-10-03T05:16:22.096Z,62.5
2022-10-03T05:18:48.728Z,96.5
2022-10-03T05:21:15.377Z,66.8
2022-10-03T05:23:40.473Z,58.1
2022-10-03T05:26:07.101Z,53.4
2022-10-03T05:28:33.738Z,56.4
2022-10-03T05:31:00.347Z,45.3
2022-10-03T05:33:26.979Z,85.7
2022-10-03T05:35:53.604Z,66.9
2022-10-03T05:38:20.227Z,66
2022-10-03T05:40:46.858Z,88
2022-10-03T05:43:13.466Z,60.7
2022-10-03T05:45:40.143Z,59
2022-10-03T05:48:06.850Z,75.3
2022-10-03T05:50:33.342Z,59.9
2022-10-03T05:52:59.965Z,61.2
2022-10-03T05:55:25.145Z,82.5
2022-10-03T05:57:51.780Z,53.9
2022-10-03T06:00:18.371Z,54.2
2022-10-03T06:02:44.949Z,51.5
2022-10-03T06:05:11.592Z,61.9
2022-10-03T06:07:38.297Z,71.8
2022-10-03T06:10:04.848Z,51.9
2022-10-03T06:12:31.575Z,46.4
2022-10-03T06:14:58.167Z,58.1
2022-10-03T06:17:24.674Z,40.4
2022-10-03T06:19:51.331Z,46.1
2022-10-03T06:22:17.931Z,36.1
2022-10-03T06:24:44.601Z,38.7
2022-10-03T06:27:09.679Z,33.4
2022-10-03T06:29:36.320Z,30.1
2022-10-03T06:32:02.926Z,30.4
2022-10-03T06:36:56.200Z,38.2
2022-10-03T06:39:22.804Z,45.8
2022-10-03T06:41:49.428Z,38.4
2022-10-03T06:44:16.145Z,39.8
2022-10-03T06:46:42.666Z,44.2
2022-10-03T06:49:09.312Z,48.5
2022-10-03T06:51:36.068Z,37.9
2022-10-03T06:54:02.635Z,46.3
2022-10-03T06:56:29.149Z,40.6
2022-10-03T06:58:54.390Z,46.8
2022-10-03T07:01:20.944Z,44.9
2022-10-03T07:03:47.534Z,48.5
2022-10-03T07:06:14.222Z,45.2
2022-10-03T07:08:40.786Z,45.8
2022-10-03T07:13:34.030Z,47.9
2022-10-03T07:16:00.763Z,45.5
2022-10-03T07:18:27.308Z,45.4
2022-10-03T07:20:53.923Z,40.6
2022-10-03T07:23:20.517Z,38.3
2022-10-03T07:25:47.477Z,44.6
2022-10-03T07:28:13.761Z,40.2
2022-10-03T07:30:38.897Z,33.7
2022-10-03T07:33:05.506Z,33
2022-10-03T07:35:32.130Z,37.8
2022-10-03T07:37:58.766Z,33.4
2022-10-03T07:40:25.401Z,38.7
2022-10-03T07:42:52.073Z,35.3
2022-10-03T07:45:18.633Z,36.2
2022-10-03T07:47:45.248Z,35.2
2022-10-03T07:50:11.872Z,34.6
2022-10-03T07:52:38.498Z,28.4
2022-10-03T07:55:05.126Z,36.6
2022-10-03T07:57:31.762Z,34.7
2022-10-03T07:59:58.423Z,35.2
2022-10-03T08:02:24.998Z,35.8
2022-10-03T08:04:50.127Z,34.7
2022-10-03T08:07:16.774Z,30.3
2022-10-03T08:09:43.356Z,35.4
2022-10-03T08:12:11.043Z,33.2
2022-10-03T08:14:36.638Z,30.6
2022-10-03T08:17:03.235Z,31.2
2022-10-03T08:19:29.925Z,30.7
2022-10-03T08:21:56.624Z,29.7
2022-10-03T08:24:23.154Z,33.6
2022-10-03T08:26:49.727Z,31.1
2022-10-03T08:29:16.352Z,27.7
2022-10-03T08:31:42.967Z,27.2
2022-10-03T08:34:09.600Z,30.3
2022-10-03T08:36:34.725Z,31.8
2022-10-03T08:39:01.348Z,35
2022-10-03T08:41:28.065Z,28
2022-10-03T08:43:54.674Z,30.3
2022-10-03T08:46:21.238Z,30
2022-10-03T08:48:47.847Z,26
2022-10-03T08:51:14.492Z,25.1
2022-10-03T08:53:41.091Z,24.7
2022-10-03T08:56:07.717Z,25.7
2022-10-03T09:01:00.970Z,25
2022-10-03T09:03:27.582Z,20.2
2022-10-03T09:05:54.257Z,19.6
2022-10-03T09:08:20.888Z,21.9
2022-10-03T09:10:46.078Z,16.5
2022-10-03T09:13:12.592Z,19.4
2022-10-03T09:15:39.227Z,19.6
2022-10-03T09:18:05.826Z,17.7
2022-10-03T09:20:32.501Z,18
2022-10-03T09:22:59.082Z,18.6
2022-10-03T09:25:25.696Z,21.9
2022-10-03T09:27:52.426Z,18.6
2022-10-03T09:30:18.955Z,14.2
2022-10-03T09:32:45.563Z,14.6
2022-10-03T09:35:12.194Z,16.1
2022-10-03T09:37:38.847Z,14.5
2022-10-03T09:40:05.433Z,13.1
2022-10-03T09:42:30.554Z,13.6
2022-10-03T09:44:57.237Z,11.9
2022-10-03T09:47:23.815Z,10.9
2022-10-03T09:49:50.454Z,28.2
2022-10-03T09:54:43.743Z,13.5
2022-10-03T09:57:10.294Z,13.8
2022-10-03T09:59:36.919Z,9.7
2022-10-03T10:02:03.547Z,10.8
2022-10-03T10:04:30.168Z,11.6
2022-10-03T10:06:56.786Z,11.9
2022-10-03T10:09:23.459Z,16.6
2022-10-03T10:11:50.086Z,11.3
2022-10-03T10:14:16.639Z,11.9
2022-10-03T10:16:41.829Z,11.4
2022-10-03T10:19:08.410Z,11
2022-10-03T10:21:35.036Z,12.4
2022-10-03T10:24:01.641Z,12.2
2022-10-03T10:26:28.269Z,10.8
2022-10-03T10:28:54.887Z,10.7
2022-10-03T10:31:21.514Z,9.4
2022-10-03T10:33:48.164Z,12.2
2022-10-03T10:36:14.804Z,9.8
2022-10-03T10:38:41.436Z,10.3
2022-10-03T10:43:34.623Z,9.4
2022-10-03T10:46:01.244Z,10.2
2022-10-03T10:48:26.410Z,9
2022-10-03T10:50:52.997Z,12.4
2022-10-03T10:53:19.627Z,9
2022-10-03T10:55:46.241Z,10.8
2022-10-03T10:58:12.902Z,12.2
2022-10-03T11:00:39.493Z,12.8
2022-10-03T11:03:06.171Z,11.7
2022-10-03T11:05:32.737Z,11.7
2022-10-03T11:07:59.346Z,10.6
2022-10-03T11:10:25.985Z,13.4
2022-10-03T11:12:52.665Z,12.9
2022-10-03T11:15:19.217Z,12.6
2022-10-03T11:17:45.956Z,10.7
2022-10-03T11:20:10.980Z,11.7
2022-10-03T11:22:37.639Z,9.7
2022-10-03T11:25:04.222Z,12.9
2022-10-03T11:27:30.837Z,10.8
2022-10-03T11:29:57.457Z,10.2
2022-10-03T11:32:24.099Z,9.7
2022-10-03T11:34:50.733Z,12.4
2022-10-03T11:37:16.555Z,15.4
2022-10-03T11:39:43.169Z,10.9
2022-10-03T11:42:09.798Z,13
2022-10-03T11:44:36.422Z,13
2022-10-03T11:47:03.070Z,10.2
2022-10-03T11:49:29.658Z,8.1
2022-10-03T11:51:56.282Z,8
2022-10-03T11:54:21.440Z,10.2
2022-10-03T11:56:48.043Z,8.6
2022-10-03T11:59:14.664Z,8.9
2022-10-03T12:01:41.287Z,12.8
2022-10-03T12:04:07.893Z,9.4
2022-10-03T12:06:34.588Z,6.7
2022-10-03T12:09:01.215Z,7.9
2022-10-03T12:13:54.391Z,10.2
2022-10-03T12:16:21.030Z,10.8
2022-10-03T12:21:14.261Z,7.7
2022-10-03T12:23:40.888Z,10.7
2022-10-03T12:26:07.528Z,7.4
2022-10-03T12:28:34.137Z,8.4
2022-10-03T12:30:59.262Z,7.2
2022-10-03T12:33:25.902Z,7.5
2022-10-03T12:35:52.546Z,6.3
2022-10-03T12:38:19.121Z,8.5
2022-10-03T12:40:45.771Z,6.3
2022-10-03T12:43:12.372Z,5.7
2022-10-03T12:45:39.003Z,7.9
2022-10-03T12:48:05.624Z,5.5
2022-10-03T12:50:32.269Z,8.7
2022-10-03T12:52:58.917Z,6.2
2022-10-03T12:55:25.491Z,6.1
2022-10-03T12:57:52.141Z,7.9
2022-10-03T13:00:18.729Z,5.4
2022-10-03T13:05:10.489Z,5.5
2022-10-03T13:07:37.135Z,7.7
2022-10-03T13:12:30.357Z,10
2022-10-03T13:14:57.002Z,6.8
2022-10-03T13:17:23.605Z,6.3
2022-10-03T13:19:50.296Z,7.3
2022-10-03T13:24:43.512Z,6
2022-10-03T13:27:08.608Z,9
2022-10-03T13:32:00.384Z,9
2022-10-03T13:34:27.056Z,7.6
2022-10-03T13:36:53.582Z,8.2
2022-10-03T13:39:18.735Z,9.2
2022-10-03T13:41:45.364Z,6.6
2022-10-03T13:44:12.012Z,7.1
2022-10-03T13:46:38.579Z,5.7
2022-10-03T13:49:05.221Z,7.7
2022-10-03T13:51:31.966Z,6.1
2022-10-03T13:53:58.498Z,6.8
2022-10-03T13:56:25.097Z,8
2022-10-03T13:58:50.240Z,7.7
2022-10-03T14:03:43.473Z,8.5
2022-10-03T14:06:08.599Z,5.8
2022-10-03T14:08:35.272Z,7.3
2022-10-03T14:11:01.830Z,8.5
2022-10-03T14:13:28.539Z,8.4
2022-10-03T14:15:55.084Z,6.7
2022-10-03T14:18:21.753Z,7.8
2022-10-03T14:20:48.335Z,6.5
2022-10-03T14:23:14.948Z,8.1
2022-10-03T14:25:41.639Z,7.9
2022-10-03T14:28:08.204Z,7.8
2022-10-03T14:30:34.833Z,8.4
2022-10-03T14:33:01.502Z,5.7
2022-10-03T14:35:28.134Z,7
2022-10-03T14:37:53.257Z,8.7
2022-10-03T14:40:19.875Z,9
2022-10-03T14:42:46.484Z,4.9
2022-10-03T14:45:13.066Z,7.9
2022-10-03T14:47:39.683Z,7.5
2022-10-03T14:50:06.310Z,5.3
2022-10-03T14:52:33.029Z,6.3
2022-10-03T14:54:59.591Z,6.5
2022-10-03T14:57:26.212Z,8.4
2022-10-03T14:59:52.834Z,7.7
2022-10-03T15:02:19.530Z,9
2022-10-03T15:04:46.044Z,7.5
2022-10-03T15:07:12.790Z,8.3
2022-10-03T15:09:37.894Z,9.6
2022-10-03T15:12:04.513Z,7.7
2022-10-03T15:14:31.136Z,6
2022-10-03T15:16:57.787Z,6.9
2022-10-03T15:19:24.307Z,4.9
2022-10-03T15:21:50.972Z,5.1
2022-10-03T15:24:17.539Z,6.3
2022-10-03T15:26:44.248Z,8.7
2022-10-03T15:29:10.854Z,6.2
2022-10-03T15:31:37.562Z,6.6
2022-10-03T15:34:04.035Z,10.3
2022-10-03T15:36:30.712Z,6.6
2022-10-03T15:38:57.291Z,8.1
2022-10-03T15:41:22.470Z,9.2
2022-10-03T15:43:49.023Z,8.8
2022-10-03T15:46:15.680Z,9.7
2022-10-03T15:48:42.267Z,5.1
2022-10-03T15:51:08.975Z,11.7
2022-10-03T15:53:35.601Z,7.9
2022-10-03T15:56:02.134Z,11
2022-10-03T15:58:28.762Z,16.8
2022-10-03T16:00:55.407Z,5.1
2022-10-03T16:03:22.009Z,6.8
2022-10-03T16:05:48.634Z,10
2022-10-03T16:08:15.252Z,11.3
2022-10-03T16:10:41.864Z,7.7
2022-10-03T16:13:07.005Z,10.3
2022-10-03T16:15:33.625Z,13.4
2022-10-03T16:18:00.251Z,10
2022-10-03T16:22:53.498Z,18.9
2022-10-03T16:25:20.135Z,6.1
2022-10-03T16:27:46.727Z,7
2022-10-03T16:30:13.420Z,10.4
2022-10-03T16:32:39.985Z,7.6
2022-10-03T16:35:06.597Z,4.6
2022-10-03T16:37:33.224Z,8.2
2022-10-03T16:39:59.915Z,5.7
2022-10-03T16:42:26.539Z,7.1
2022-10-03T16:44:51.607Z,8.2
2022-10-03T16:47:18.240Z,9.3
2022-10-03T16:49:44.839Z,8.2
2022-10-03T16:52:11.519Z,8.1
2022-10-03T16:57:04.704Z,7.4
2022-10-03T16:59:31.318Z,11.5
2022-10-03T17:01:57.947Z,9.5
2022-10-03T17:04:24.593Z,12.4
2022-10-03T17:06:51.212Z,9.8
2022-10-03T17:09:17.847Z,13.7
2022-10-03T17:11:44.572Z,9.5
2022-10-03T17:14:11.088Z,11.9
2022-10-03T17:16:36.183Z,11.6
2022-10-03T17:19:02.817Z,9
2022-10-03T17:21:29.427Z,11.5
2022-10-03T17:23:56.120Z,9.1
2022-10-03T17:26:22.717Z,10.1
2022-10-03T17:28:49.323Z,10.8
2022-10-03T17:31:15.926Z,11.5
2022-10-03T17:33:42.545Z,13.8
2022-10-03T17:36:09.170Z,11.3
2022-10-03T17:38:35.789Z,10.4
2022-10-03T17:41:02.407Z,12.2
2022-10-03T17:45:55.667Z,9.9
2022-10-03T17:48:22.349Z,8.3
2022-10-03T17:50:47.471Z,13.7
2022-10-03T17:53:14.131Z,10.2
2022-10-03T17:55:40.652Z,16.6
2022-10-03T17:58:07.355Z,13.3
2022-10-03T18:00:33.903Z,11.3
2022-10-03T18:03:00.537Z,11.7
2022-10-03T18:05:27.152Z,10.5
2022-10-03T18:07:53.779Z,9.5
2022-10-03T18:10:20.395Z,13.3
2022-10-03T18:12:47.121Z,14
2022-10-03T18:17:40.252Z,13.8
2022-10-03T18:20:06.907Z,12
2022-10-03T18:22:32.069Z,11.2
2022-10-03T18:24:58.723Z,14.9
2022-10-03T18:27:25.264Z,11
2022-10-03T18:29:51.954Z,9.9
2022-10-03T18:32:18.551Z,11.8
2022-10-03T18:37:11.866Z,10.5
2022-10-03T18:39:38.384Z,9
2022-10-03T18:42:05.019Z,10.1
2022-10-03T18:44:31.622Z,10.7
2022-10-03T18:49:24.969Z,12
2022-10-03T18:51:50.007Z,16.3
2022-10-03T18:56:41.802Z,9.5
2022-10-03T18:59:08.373Z,13.5
2022-10-03T19:01:35.097Z,12.2
2022-10-03T19:04:01.640Z,11.3
2022-10-03T19:06:28.303Z,13
2022-10-03T19:13:48.108Z,11.3
2022-10-03T19:16:14.734Z,11.2
2022-10-03T19:18:41.352Z,11.4
2022-10-03T19:21:08.064Z,9.7
2022-10-03T19:23:34.601Z,12
2022-10-03T19:25:59.771Z,11.8
2022-10-03T19:28:24.865Z,10.2
2022-10-03T19:30:51.473Z,11.4
2022-10-03T19:33:18.149Z,19.4
2022-10-03T19:35:44.745Z,14.8
2022-10-03T19:40:38.036Z,10.5
2022-10-03T19:45:31.268Z,14.7
2022-10-03T19:47:57.850Z,9.9
2022-10-03T19:50:24.460Z,9.9
2022-10-03T19:52:51.112Z,13.9
2022-10-03T19:55:17.788Z,12.6
2022-10-03T19:57:44.431Z,14.7
2022-10-03T20:00:09.450Z,12.9
2022-10-03T20:02:36.073Z,12
2022-10-03T20:05:02.755Z,15.4
2022-10-03T20:09:55.995Z,15.6
2022-10-03T20:12:22.585Z,12.8
2022-10-03T20:14:49.232Z,14.7
2022-10-03T20:17:15.840Z,12.5
2022-10-03T20:19:42.437Z,12.6
2022-10-03T20:22:09.071Z,12.7
2022-10-03T20:27:02.477Z,11.5
2022-10-03T20:29:28.949Z,10.8
2022-10-03T20:31:54.063Z,14.6
2022-10-03T20:34:20.730Z,12.3
2022-10-03T20:39:13.932Z,15.2
2022-10-03T20:41:40.632Z,13
2022-10-03T20:44:07.170Z,12.5
2022-10-03T20:46:33.896Z,14.8
2022-10-03T20:49:00.465Z,20.9
2022-10-03T20:53:53.668Z,22.1
2022-10-03T20:56:20.311Z,18.7
2022-10-03T20:58:46.944Z,30.2
2022-10-03T21:01:13.583Z,64.7
2022-10-03T21:03:38.710Z,87.8
2022-10-03T21:08:32.055Z,35
2022-10-03T21:13:25.242Z,91.3
2022-10-03T21:15:51.887Z,112.3
2022-10-03T21:18:18.466Z,100.2
2022-10-03T21:20:45.101Z,67.1
2022-10-03T21:23:11.662Z,134.6
2022-10-03T21:25:38.318Z,128.6
2022-10-03T21:28:04.914Z,141.4
2022-10-03T21:30:31.577Z,147.7
2022-10-03T21:32:58.244Z,131.8
2022-10-03T21:35:24.761Z,161
2022-10-03T21:40:16.516Z,109.7
2022-10-03T21:42:43.222Z,118.4
2022-10-03T21:45:09.771Z,125.2
2022-10-03T21:47:36.436Z,58.9
2022-10-03T21:57:22.879Z,77.5
2022-10-03T22:07:07.868Z,101.3
2022-10-03T22:09:33.178Z,149
2022-10-03T22:11:59.660Z,151
2022-10-03T22:14:26.341Z,121.5
2022-10-03T22:16:52.872Z,122
2022-10-03T22:19:19.516Z,63.3
2022-10-03T22:21:46.124Z,84.9
2022-10-03T22:24:12.758Z,80.3
2022-10-03T22:29:06.067Z,93.8
2022-10-03T22:31:32.665Z,104.2
2022-10-03T22:36:25.863Z,82.2
2022-10-03T22:38:52.527Z,211
2022-10-03T22:41:19.117Z,83
2022-10-03T22:43:44.299Z,125.4
2022-10-03T22:46:10.876Z,94.6
2022-10-03T22:48:37.528Z,165.8
2022-10-03T22:53:30.753Z,184.4
2022-10-03T22:55:57.396Z,233.3
2022-10-03T22:58:24.002Z,79.6
2022-10-03T23:00:50.601Z,121.6
2022-10-03T23:05:43.881Z,301.6
2022-10-03T23:08:10.581Z,260.6
2022-10-03T23:10:37.110Z,208
2022-10-03T23:13:03.775Z,237.4
2022-10-03T23:15:28.882Z,99.8
2022-10-03T23:17:55.514Z,204.7
2022-10-03T23:20:22.145Z,173.2
2022-10-03T23:25:15.381Z,109.7
2022-10-03T23:27:41.956Z,124.4
2022-10-03T23:30:08.585Z,97
2022-10-03T23:32:35.209Z,85.8
2022-10-03T23:35:01.825Z,189.2
2022-10-03T23:37:28.468Z,120.4
2022-10-03T23:39:55.067Z,55.8
2022-10-03T23:42:21.699Z,165.3
2022-10-03T23:44:48.366Z,77.4
2022-10-03T23:47:13.441Z,65.1
2022-10-03T23:49:40.080Z,72.5
2022-10-03T23:52:06.695Z,116.7
2022-10-03T23:54:33.330Z,71
2022-10-03T23:56:58.467Z,125.5
2022-10-03T23:59:23.589Z,167.7
